createdAt,value
2019-06-15T00:00:02.000Z,59.97
2019-06-15T00:01:02.000Z,59.93
2019-06-15T00:02:02.000Z,59.93
2019-06-15T00:03:02.000Z,59.91
2019-06-15T00:04:02.000Z,59.95
2019-06-15T00:05:02.000Z,59.91
2019-06-15T00:06:02.000Z,59.94
2019-06-15T00:07:02.000Z,59.93
2019-06-15T00:08:02.000Z,59.95
2019-06-15T00:09:02.000Z,59.92
2019-06-15T00:10:02.000Z,59.95
2019-06-15T00:11:02.000Z,59.93
2019-06-15T00:12:02.000Z,59.93
2019-06-15T00:13:02.000Z,59.92
2019-06-15T00:14:02.000Z,59.95
2019-06-15T00:15:02.000Z,59.92
2019-06-15T00:16:02.000Z,59.93
2019-06-15T00:17:02.000Z,59.94
2019-06-15T00:18:02.000Z,59.90
2019-06-15T00:19:02.000Z,59.92
2019-06-15T00:20:02.000Z,59.91
2019-06-15T00:21:02.000Z,59.92
2019-06-15T00:22:02.000Z,59.93
2019-06-15T00:23:02.000Z,59.94
2019-06-15T00:24:02.000Z,59.98
2019-06-15T00:25:02.000Z,59.93
2019-06-15T00:26:02.000Z,59.90
2019-06-15T00:27:02.000Z,59.94
2019-06-15T00:28:03.000Z,59.94
2019-06-15T00:29:02.000Z,59.93
2019-06-15T00:30:02.000Z,59.94
2019-06-15T00:31:02.000Z,59.93
2019-06-15T00:32:02.000Z,59.95
2019-06-15T00:33:02.000Z,59.96
2019-06-15T00:34:02.000Z,59.95
2019-06-15T00:35:02.000Z,59.96
2019-06-15T00:36:02.000Z,59.99
2019-06-15T00:37:02.000Z,59.95
2019-06-15T00:38:02.000Z,59.97
2019-06-15T00:39:02.000Z,59.96
2019-06-15T00:40:02.000Z,59.96
2019-06-15T00:41:02.000Z,59.97
2019-06-15T00:42:02.000Z,59.97
2019-06-15T00:43:02.000Z,59.96
2019-06-15T00:44:02.000Z,59.96
2019-06-15T00:45:02.000Z,59.96
2019-06-15T00:46:02.000Z,59.96
2019-06-15T00:47:02.000Z,59.96
2019-06-15T00:48:02.000Z,59.99
2019-06-15T00:49:02.000Z,59.95
2019-06-15T00:50:02.000Z,59.99
2019-06-15T00:51:02.000Z,59.92
2019-06-15T00:52:02.000Z,59.95
2019-06-15T00:53:02.000Z,59.99
2019-06-15T00:54:02.000Z,59.94
2019-06-15T00:55:02.000Z,59.96
2019-06-15T00:56:02.000Z,59.95
2019-06-15T00:57:02.000Z,59.98
2019-06-15T00:58:02.000Z,59.97
2019-06-15T00:59:02.000Z,59.96
2019-06-15T01:00:02.000Z,59.99
2019-06-15T01:01:02.000Z,59.98
2019-06-15T01:02:02.000Z,59.97
2019-06-15T01:03:02.000Z,59.99
2019-06-15T01:04:02.000Z,59.93
2019-06-15T01:05:02.000Z,59.95
2019-06-15T01:06:02.000Z,59.97
2019-06-15T01:07:02.000Z,59.97
2019-06-15T01:08:02.000Z,59.97
2019-06-15T01:09:02.000Z,59.96
2019-06-15T01:10:02.000Z,59.94
2019-06-15T01:11:02.000Z,59.93
2019-06-15T01:12:02.000Z,59.95
2019-06-15T01:13:02.000Z,59.94
2019-06-15T01:14:02.000Z,59.97
2019-06-15T01:15:02.000Z,59.98
2019-06-15T01:16:02.000Z,59.96
2019-06-15T01:17:02.000Z,59.96
2019-06-15T01:18:02.000Z,59.97
2019-06-15T01:19:02.000Z,59.97
2019-06-15T01:20:02.000Z,59.99
2019-06-15T01:21:02.000Z,59.97
2019-06-15T01:22:02.000Z,59.96
2019-06-15T01:23:02.000Z,59.97
2019-06-15T01:24:02.000Z,59.94
2019-06-15T01:25:02.000Z,59.97
2019-06-15T01:27:37.000Z,59.95
2019-06-15T01:28:37.000Z,59.95
2019-06-15T01:29:37.000Z,59.98
2019-06-15T01:30:36.000Z,59.96
2019-06-15T01:31:36.000Z,59.96
2019-06-15T01:32:36.000Z,59.96
2019-06-15T01:33:37.000Z,59.96
2019-06-15T01:34:36.000Z,59.94
2019-06-15T01:35:36.000Z,60.01
2019-06-15T01:36:36.000Z,59.99
2019-06-15T01:37:36.000Z,59.97
2019-06-15T01:38:36.000Z,59.93
2019-06-15T01:39:36.000Z,59.94
2019-06-15T01:40:36.000Z,59.98
2019-06-15T01:41:36.000Z,59.98
2019-06-15T01:42:37.000Z,60.01
2019-06-15T01:43:37.000Z,60.00
2019-06-15T01:44:37.000Z,59.97
2019-06-15T01:45:37.000Z,59.98
2019-06-15T01:46:37.000Z,59.98
2019-06-15T01:47:37.000Z,59.98
2019-06-15T01:48:37.000Z,59.98
2019-06-15T01:49:37.000Z,59.99
2019-06-15T01:50:36.000Z,59.94
2019-06-15T01:51:36.000Z,59.96
2019-06-15T01:52:36.000Z,59.98
2019-06-15T01:53:36.000Z,59.97
2019-06-15T01:54:36.000Z,60.00
2019-06-15T01:55:36.000Z,59.99
2019-06-15T01:56:36.000Z,60.01
2019-06-15T01:57:36.000Z,59.96
2019-06-15T01:58:36.000Z,59.95
2019-06-15T01:59:36.000Z,59.99
2019-06-15T02:00:36.000Z,59.98
2019-06-15T02:01:36.000Z,59.97
2019-06-15T02:02:36.000Z,59.98
2019-06-15T02:03:36.000Z,59.99
2019-06-15T02:04:36.000Z,59.99
2019-06-15T02:05:36.000Z,59.99
2019-06-15T02:06:37.000Z,59.98
2019-06-15T02:07:37.000Z,59.98
2019-06-15T02:08:37.000Z,59.99
2019-06-15T02:09:36.000Z,59.96
2019-06-15T02:10:36.000Z,59.98
2019-06-15T02:11:36.000Z,59.99
2019-06-15T02:12:36.000Z,59.95
2019-06-15T02:13:36.000Z,60.01
2019-06-15T02:14:36.000Z,60.01
2019-06-15T02:15:36.000Z,60.00
2019-06-15T02:16:37.000Z,59.99
2019-06-15T02:17:36.000Z,59.98
2019-06-15T02:18:37.000Z,59.99
2019-06-15T02:19:37.000Z,59.99
2019-06-15T02:20:36.000Z,60.00
2019-06-15T02:21:36.000Z,59.99
2019-06-15T02:22:36.000Z,60.01
2019-06-15T02:23:36.000Z,59.98
2019-06-15T02:24:37.000Z,59.97
2019-06-15T02:25:37.000Z,60.01
2019-06-15T02:26:37.000Z,59.98
2019-06-15T02:27:36.000Z,59.97
2019-06-15T02:28:36.000Z,60.00
2019-06-15T02:29:36.000Z,59.99
2019-06-15T02:30:36.000Z,60.00
2019-06-15T02:31:36.000Z,59.98
2019-06-15T02:32:36.000Z,60.00
2019-06-15T02:33:36.000Z,59.98
2019-06-15T02:34:36.000Z,60.03
2019-06-15T02:35:36.000Z,59.99
2019-06-15T02:36:36.000Z,59.99
2019-06-15T02:37:37.000Z,59.99
2019-06-15T02:38:36.000Z,60.01
2019-06-15T02:39:36.000Z,59.98
2019-06-15T02:40:36.000Z,59.98
2019-06-15T02:41:36.000Z,59.99
2019-06-15T02:42:36.000Z,59.97
2019-06-15T02:43:36.000Z,59.98
2019-06-15T02:44:36.000Z,59.98
2019-06-15T02:45:36.000Z,60.01
2019-06-15T02:46:36.000Z,59.99
2019-06-15T02:47:36.000Z,60.01
2019-06-15T02:48:36.000Z,59.96
2019-06-15T02:49:36.000Z,60.00
2019-06-15T02:50:36.000Z,60.01
2019-06-15T02:51:36.000Z,59.96
2019-06-15T02:52:36.000Z,59.99
2019-06-15T02:53:36.000Z,60.00
2019-06-15T02:54:36.000Z,59.99
2019-06-15T02:55:36.000Z,59.99
2019-06-15T02:56:36.000Z,59.98
2019-06-15T02:57:36.000Z,60.00
2019-06-15T02:58:36.000Z,59.99
2019-06-15T02:59:37.000Z,59.96
2019-06-15T03:00:36.000Z,59.99
2019-06-15T03:01:36.000Z,59.98
2019-06-15T03:02:36.000Z,59.99
2019-06-15T03:03:36.000Z,59.97
2019-06-15T03:04:36.000Z,59.97
2019-06-15T03:05:36.000Z,60.00
2019-06-15T03:06:36.000Z,60.00
2019-06-15T03:07:36.000Z,60.01
2019-06-15T03:08:36.000Z,60.00
2019-06-15T03:09:36.000Z,60.01
2019-06-15T03:10:36.000Z,60.00
2019-06-15T03:11:36.000Z,60.04
2019-06-15T03:12:36.000Z,60.02
2019-06-15T03:13:36.000Z,60.01
2019-06-15T03:14:36.000Z,60.01
2019-06-15T03:15:36.000Z,59.97
2019-06-15T03:16:36.000Z,60.01
2019-06-15T03:17:36.000Z,60.00
2019-06-15T03:18:36.000Z,60.01
2019-06-15T03:19:36.000Z,60.00
2019-06-15T03:20:36.000Z,60.00
2019-06-15T03:21:36.000Z,60.04
2019-06-15T03:22:36.000Z,60.02
2019-06-15T03:23:36.000Z,60.00
2019-06-15T03:24:36.000Z,60.00
2019-06-15T03:25:36.000Z,60.04
2019-06-15T03:26:36.000Z,60.00
2019-06-15T03:27:36.000Z,60.04
2019-06-15T03:28:36.000Z,60.02
2019-06-15T03:29:36.000Z,60.05
2019-06-15T03:30:36.000Z,60.02
2019-06-15T03:31:36.000Z,60.04
2019-06-15T03:32:37.000Z,60.02
2019-06-15T03:33:36.000Z,60.05
2019-06-15T03:34:36.000Z,60.04
2019-06-15T03:35:36.000Z,60.01
2019-06-15T03:36:36.000Z,60.02
2019-06-15T03:37:36.000Z,60.05
2019-06-15T03:38:36.000Z,60.03
2019-06-15T03:39:36.000Z,60.04
2019-06-15T03:40:37.000Z,60.04
2019-06-15T03:41:37.000Z,60.04
2019-06-15T03:42:37.000Z,60.04
2019-06-15T03:43:37.000Z,60.02
2019-06-15T03:44:37.000Z,60.06
2019-06-15T03:45:36.000Z,60.03
2019-06-15T03:46:36.000Z,60.04
2019-06-15T03:47:36.000Z,60.02
2019-06-15T03:48:36.000Z,60.00
2019-06-15T03:49:36.000Z,60.02
2019-06-15T03:50:37.000Z,60.02
2019-06-15T03:51:37.000Z,60.00
2019-06-15T03:52:36.000Z,60.04
2019-06-15T03:53:36.000Z,60.05
2019-06-15T03:54:37.000Z,60.01
2019-06-15T03:55:36.000Z,60.06
2019-06-15T03:56:37.000Z,60.04
2019-06-15T03:57:36.000Z,60.02
2019-06-15T03:58:37.000Z,60.01
2019-06-15T03:59:36.000Z,60.02
2019-06-15T04:00:36.000Z,60.02
2019-06-15T04:01:36.000Z,60.02
2019-06-15T04:02:36.000Z,60.00
2019-06-15T04:03:36.000Z,60.06
2019-06-15T04:04:36.000Z,60.01
2019-06-15T04:05:36.000Z,60.04
2019-06-15T04:06:36.000Z,60.01
2019-06-15T04:07:36.000Z,60.02
2019-06-15T04:08:36.000Z,59.97
2019-06-15T04:09:36.000Z,60.01
2019-06-15T04:10:36.000Z,60.02
2019-06-15T04:11:36.000Z,60.02
2019-06-15T04:12:36.000Z,60.02
2019-06-15T04:13:36.000Z,60.02
2019-06-15T04:14:36.000Z,60.02
2019-06-15T04:15:36.000Z,60.01
2019-06-15T04:16:36.000Z,60.02
2019-06-15T04:17:36.000Z,60.02
2019-06-15T04:18:36.000Z,60.02
2019-06-15T04:19:36.000Z,59.98
2019-06-15T04:20:36.000Z,60.01
2019-06-15T04:21:36.000Z,60.02
2019-06-15T04:22:36.000Z,60.05
2019-06-15T04:23:36.000Z,59.99
2019-06-15T04:24:37.000Z,60.05
2019-06-15T04:25:36.000Z,60.02
2019-06-15T04:26:36.000Z,60.03
2019-06-15T04:27:36.000Z,60.02
2019-06-15T04:28:36.000Z,60.02
2019-06-15T04:29:36.000Z,60.03
2019-06-15T04:30:36.000Z,60.03
2019-06-15T04:31:36.000Z,60.04
2019-06-15T04:32:36.000Z,60.04
2019-06-15T04:33:36.000Z,59.99
2019-06-15T04:34:36.000Z,60.02
2019-06-15T04:35:36.000Z,60.05
2019-06-15T04:36:36.000Z,60.02
2019-06-15T04:37:36.000Z,60.02
2019-06-15T04:38:36.000Z,60.01
2019-06-15T04:39:36.000Z,60.02
2019-06-15T04:40:36.000Z,60.07
2019-06-15T04:41:36.000Z,60.03
2019-06-15T04:42:36.000Z,59.99
2019-06-15T04:43:36.000Z,59.99
2019-06-15T04:44:36.000Z,59.99
2019-06-15T04:45:36.000Z,59.98
2019-06-15T04:46:36.000Z,60.00
2019-06-15T04:47:36.000Z,59.99
2019-06-15T04:48:36.000Z,59.98
2019-06-15T04:49:36.000Z,59.97
2019-06-15T04:50:36.000Z,59.94
2019-06-15T04:51:36.000Z,59.94
2019-06-15T04:52:36.000Z,59.95
2019-06-15T04:53:36.000Z,59.98
2019-06-15T04:54:36.000Z,59.95
2019-06-15T04:55:36.000Z,59.93
2019-06-15T04:56:36.000Z,59.95
2019-06-15T04:57:36.000Z,59.96
2019-06-15T04:58:36.000Z,59.94
2019-06-15T04:59:36.000Z,59.93
2019-06-15T05:00:36.000Z,59.93
2019-06-15T05:01:36.000Z,59.94
2019-06-15T05:02:36.000Z,59.92
2019-06-15T05:03:36.000Z,59.98
2019-06-15T05:04:36.000Z,59.92
2019-06-15T05:05:36.000Z,59.94
2019-06-15T05:06:36.000Z,59.94
2019-06-15T05:07:36.000Z,59.96
2019-06-15T05:08:37.000Z,60.05
2019-06-15T05:09:36.000Z,60.14
2019-06-15T05:10:36.000Z,60.29
2019-06-15T05:11:36.000Z,60.89
2019-06-15T05:12:36.000Z,61.29
2019-06-15T05:13:36.000Z,61.44
2019-06-15T05:14:36.000Z,61.75
2019-06-15T05:15:36.000Z,61.86
2019-06-15T05:16:36.000Z,61.96
2019-06-15T05:17:36.000Z,61.96
2019-06-15T05:18:36.000Z,62.01
2019-06-15T05:19:36.000Z,61.94
2019-06-15T05:20:36.000Z,62.08
2019-06-15T05:21:36.000Z,62.25
2019-06-15T05:22:36.000Z,62.35
2019-06-15T05:23:36.000Z,62.70
2019-06-15T05:24:36.000Z,62.70
2019-06-15T05:25:36.000Z,62.73
2019-06-15T05:26:36.000Z,62.87
2019-06-15T05:27:36.000Z,62.96
2019-06-15T05:28:36.000Z,63.15
2019-06-15T05:29:36.000Z,63.05
2019-06-15T05:30:37.000Z,63.02
2019-06-15T05:31:36.000Z,63.06
2019-06-15T05:32:36.000Z,63.19
2019-06-15T05:33:36.000Z,63.30
2019-06-15T05:34:36.000Z,63.38
2019-06-15T05:35:36.000Z,63.47
2019-06-15T05:36:36.000Z,63.50
2019-06-15T05:37:36.000Z,63.56
2019-06-15T05:38:36.000Z,63.65
2019-06-15T05:39:36.000Z,63.76
2019-06-15T05:40:36.000Z,63.78
2019-06-15T05:41:36.000Z,63.79
2019-06-15T05:42:36.000Z,63.70
2019-06-15T05:43:36.000Z,63.93
2019-06-15T05:44:36.000Z,63.75
2019-06-15T05:45:36.000Z,63.90
2019-06-15T05:46:36.000Z,64.02
2019-06-15T05:47:36.000Z,63.84
2019-06-15T05:48:36.000Z,64.01
2019-06-15T05:49:36.000Z,64.22
2019-06-15T05:50:36.000Z,64.26
2019-06-15T05:51:36.000Z,64.16
2019-06-15T05:52:36.000Z,64.19
2019-06-15T05:53:36.000Z,64.25
2019-06-15T05:54:36.000Z,64.29
2019-06-15T05:55:36.000Z,64.31
2019-06-15T05:56:36.000Z,64.46
2019-06-15T05:57:36.000Z,64.60
2019-06-15T05:58:36.000Z,64.62
2019-06-15T05:59:36.000Z,64.41
2019-06-15T06:00:36.000Z,64.35
2019-06-15T06:01:36.000Z,64.50
2019-06-15T06:02:36.000Z,64.70
2019-06-15T06:03:36.000Z,64.68
2019-06-15T06:04:36.000Z,64.90
2019-06-15T06:05:36.000Z,64.69
2019-06-15T06:06:36.000Z,64.90
2019-06-15T06:07:36.000Z,64.81
2019-06-15T06:08:36.000Z,64.91
2019-06-15T06:09:36.000Z,64.81
2019-06-15T06:10:36.000Z,64.80
2019-06-15T06:11:36.000Z,64.80
2019-06-15T06:12:36.000Z,65.03
2019-06-15T06:13:36.000Z,64.92
2019-06-15T06:14:36.000Z,64.99
2019-06-15T06:15:36.000Z,64.97
2019-06-15T06:16:36.000Z,65.27
2019-06-15T06:17:36.000Z,65.11
2019-06-15T06:18:36.000Z,65.33
2019-06-15T06:19:36.000Z,65.09
2019-06-15T06:20:36.000Z,65.26
2019-06-15T06:21:36.000Z,65.38
2019-06-15T06:22:36.000Z,65.44
2019-06-15T06:23:36.000Z,65.46
2019-06-15T06:24:36.000Z,65.55
2019-06-15T06:25:36.000Z,65.49
2019-06-15T06:26:36.000Z,65.58
2019-06-15T06:27:36.000Z,65.46
2019-06-15T06:28:36.000Z,65.61
2019-06-15T06:29:36.000Z,65.52
2019-06-15T06:30:36.000Z,65.54
2019-06-15T06:31:36.000Z,65.88
2019-06-15T06:32:36.000Z,65.90
2019-06-15T06:33:36.000Z,65.80
2019-06-15T06:34:36.000Z,65.76
2019-06-15T06:35:36.000Z,65.55
2019-06-15T06:36:36.000Z,65.59
2019-06-15T06:37:36.000Z,65.87
2019-06-15T06:38:36.000Z,65.72
2019-06-15T06:39:36.000Z,65.77
2019-06-15T06:40:36.000Z,65.90
2019-06-15T06:41:36.000Z,65.91
2019-06-15T06:42:36.000Z,65.83
2019-06-15T06:43:36.000Z,65.84
2019-06-15T06:44:36.000Z,65.95
2019-06-15T06:45:36.000Z,66.46
2019-06-15T06:46:36.000Z,66.47
2019-06-15T06:47:36.000Z,66.08
2019-06-15T06:48:36.000Z,66.29
2019-06-15T06:49:36.000Z,65.94
2019-06-15T06:50:36.000Z,65.93
2019-06-15T06:51:36.000Z,66.68
2019-06-15T06:52:36.000Z,66.79
2019-06-15T06:53:36.000Z,66.58
2019-06-15T06:54:36.000Z,66.91
2019-06-15T06:55:36.000Z,67.14
2019-06-15T06:56:36.000Z,66.99
2019-06-15T06:57:36.000Z,66.76
2019-06-15T06:58:36.000Z,66.92
2019-06-15T06:59:36.000Z,67.17
2019-06-15T07:00:36.000Z,67.21
2019-06-15T07:01:36.000Z,66.67
2019-06-15T07:02:36.000Z,67.01
2019-06-15T07:03:36.000Z,66.96
2019-06-15T07:04:36.000Z,66.81
2019-06-15T07:05:36.000Z,67.18
2019-06-15T07:06:36.000Z,66.80
2019-06-15T07:07:36.000Z,66.87
2019-06-15T07:08:36.000Z,66.50
2019-06-15T07:09:36.000Z,66.69
2019-06-15T07:10:36.000Z,66.68
2019-06-15T07:11:36.000Z,66.90
2019-06-15T07:12:36.000Z,66.74
2019-06-15T07:13:36.000Z,66.83
2019-06-15T07:14:36.000Z,67.32
2019-06-15T07:15:36.000Z,67.40
2019-06-15T07:16:36.000Z,66.58
2019-06-15T07:17:36.000Z,66.59
2019-06-15T07:18:36.000Z,67.21
2019-06-15T07:19:36.000Z,66.84
2019-06-15T07:20:36.000Z,66.51
2019-06-15T07:21:36.000Z,66.59
2019-06-15T07:22:36.000Z,67.04
2019-06-15T07:23:36.000Z,67.19
2019-06-15T07:24:36.000Z,66.85
2019-06-15T07:25:36.000Z,66.57
2019-06-15T07:26:36.000Z,66.39
2019-06-15T07:27:36.000Z,66.28
2019-06-15T07:28:36.000Z,66.12
2019-06-15T07:29:36.000Z,65.96
2019-06-15T07:30:36.000Z,65.92
2019-06-15T07:31:37.000Z,65.97
2019-06-15T07:32:36.000Z,65.58
2019-06-15T07:33:36.000Z,65.45
2019-06-15T07:34:36.000Z,65.52
2019-06-15T07:35:36.000Z,65.25
2019-06-15T07:36:36.000Z,65.07
2019-06-15T07:37:37.000Z,65.06
2019-06-15T07:38:36.000Z,64.85
2019-06-15T07:39:36.000Z,65.81
2019-06-15T07:40:36.000Z,65.59
2019-06-15T07:41:36.000Z,65.45
2019-06-15T07:42:36.000Z,65.25
2019-06-15T07:43:36.000Z,65.21
2019-06-15T07:44:36.000Z,64.99
2019-06-15T07:45:36.000Z,64.96
2019-06-15T07:46:36.000Z,64.88
2019-06-15T07:47:36.000Z,64.84
2019-06-15T07:48:36.000Z,64.74
2019-06-15T07:49:36.000Z,64.87
2019-06-15T07:50:36.000Z,64.81
2019-06-15T07:51:36.000Z,64.79
2019-06-15T07:52:36.000Z,64.73
2019-06-15T07:53:36.000Z,64.57
2019-06-15T07:54:37.000Z,64.59
2019-06-15T07:55:36.000Z,64.57
2019-06-15T07:56:36.000Z,64.53
2019-06-15T07:57:37.000Z,64.51
2019-06-15T07:58:36.000Z,64.50
2019-06-15T07:59:36.000Z,64.10
2019-06-15T08:00:36.000Z,64.09
2019-06-15T08:01:36.000Z,64.38
2019-06-15T08:02:36.000Z,64.45
2019-06-15T08:03:36.000Z,64.37
2019-06-15T08:04:36.000Z,64.31
2019-06-15T08:05:37.000Z,64.28
2019-06-15T08:06:37.000Z,64.28
2019-06-15T08:07:37.000Z,64.22
2019-06-15T08:08:37.000Z,64.21
2019-06-15T08:09:37.000Z,64.14
2019-06-15T08:10:37.000Z,64.16
2019-06-15T08:11:37.000Z,64.09
2019-06-15T08:12:37.000Z,63.97
2019-06-15T08:13:37.000Z,63.88
2019-06-15T08:14:37.000Z,63.92
2019-06-15T08:15:37.000Z,63.91
2019-06-15T08:16:36.000Z,63.77
2019-06-15T08:17:36.000Z,63.87
2019-06-15T08:18:36.000Z,63.85
2019-06-15T08:19:36.000Z,63.82
2019-06-15T08:20:36.000Z,63.76
2019-06-15T08:21:36.000Z,63.72
2019-06-15T08:22:36.000Z,63.75
2019-06-15T08:23:37.000Z,63.75
2019-06-15T08:24:37.000Z,63.65
2019-06-15T08:25:36.000Z,63.71
2019-06-15T08:26:37.000Z,63.65
2019-06-15T08:27:37.000Z,63.61
2019-06-15T08:28:37.000Z,63.51
2019-06-15T08:29:37.000Z,63.57
2019-06-15T08:30:37.000Z,63.57
2019-06-15T08:31:37.000Z,63.58
2019-06-15T08:32:37.000Z,63.54
2019-06-15T08:33:37.000Z,63.53
2019-06-15T08:34:37.000Z,63.45
2019-06-15T08:35:36.000Z,63.44
2019-06-15T08:36:37.000Z,63.38
2019-06-15T08:37:36.000Z,63.26
2019-06-15T08:38:36.000Z,63.45
2019-06-15T08:39:36.000Z,63.43
2019-06-15T08:40:36.000Z,63.38
2019-06-15T08:41:36.000Z,63.35
2019-06-15T08:42:36.000Z,63.36
2019-06-15T08:43:36.000Z,63.40
2019-06-15T08:44:36.000Z,63.21
2019-06-15T08:45:36.000Z,63.29
2019-06-15T08:46:36.000Z,63.27
2019-06-15T08:47:36.000Z,63.13
2019-06-15T08:48:36.000Z,63.30
2019-06-15T08:49:36.000Z,63.36
2019-06-15T08:50:36.000Z,63.32
2019-06-15T08:51:36.000Z,63.17
2019-06-15T08:52:36.000Z,63.18
2019-06-15T08:53:36.000Z,63.10
2019-06-15T08:54:36.000Z,63.22
2019-06-15T08:55:36.000Z,63.11
2019-06-15T08:56:36.000Z,63.15
2019-06-15T08:57:36.000Z,63.09
2019-06-15T08:58:36.000Z,63.19
2019-06-15T08:59:36.000Z,63.27
2019-06-15T09:00:36.000Z,63.22
2019-06-15T09:01:36.000Z,63.23
2019-06-15T09:02:36.000Z,63.24
2019-06-15T09:03:36.000Z,63.15
2019-06-15T09:04:36.000Z,63.34
2019-06-15T09:05:36.000Z,63.21
2019-06-15T09:06:36.000Z,63.23
2019-06-15T09:07:36.000Z,63.01
2019-06-15T09:08:36.000Z,63.10
2019-06-15T09:09:36.000Z,63.08
2019-06-15T09:10:36.000Z,63.07
2019-06-15T09:11:36.000Z,62.99
2019-06-15T09:12:36.000Z,63.13
2019-06-15T09:13:36.000Z,62.89
2019-06-15T09:14:37.000Z,62.93
2019-06-15T09:15:36.000Z,62.92
2019-06-15T09:16:36.000Z,62.81
2019-06-15T09:17:36.000Z,62.84
2019-06-15T09:18:37.000Z,62.78
2019-06-15T09:19:37.000Z,62.83
2019-06-15T09:20:36.000Z,63.02
2019-06-15T09:21:36.000Z,62.94
2019-06-15T09:22:36.000Z,62.91
2019-06-15T09:23:36.000Z,62.94
2019-06-15T09:24:36.000Z,62.96
2019-06-15T09:25:36.000Z,62.83
2019-06-15T09:26:36.000Z,62.77
2019-06-15T09:27:37.000Z,62.85
2019-06-15T09:28:37.000Z,62.78
2019-06-15T09:29:36.000Z,62.75
2019-06-15T09:30:36.000Z,62.68
2019-06-15T09:31:37.000Z,62.66
2019-06-15T09:32:37.000Z,62.68
2019-06-15T09:33:37.000Z,62.60
2019-06-15T09:34:36.000Z,62.76
2019-06-15T09:35:36.000Z,62.56
2019-06-15T09:36:36.000Z,62.68
2019-06-15T09:37:36.000Z,62.57
2019-06-15T09:38:36.000Z,62.89
2019-06-15T09:39:36.000Z,62.80
2019-06-15T09:40:36.000Z,62.66
2019-06-15T09:41:36.000Z,62.62
2019-06-15T09:42:37.000Z,62.54
2019-06-15T09:43:36.000Z,62.63
2019-06-15T09:44:36.000Z,62.57
2019-06-15T09:45:37.000Z,62.79
2019-06-15T09:46:36.000Z,62.70
2019-06-15T09:47:37.000Z,62.50
2019-06-15T09:48:37.000Z,62.42
2019-06-15T09:49:37.000Z,62.47
2019-06-15T09:50:37.000Z,62.41
2019-06-15T09:51:37.000Z,62.30
2019-06-15T09:52:37.000Z,62.37
2019-06-15T09:53:36.000Z,62.38
2019-06-15T09:54:36.000Z,62.30
2019-06-15T09:55:36.000Z,62.34
2019-06-15T09:56:36.000Z,62.12
2019-06-15T09:57:36.000Z,62.16
2019-06-15T09:58:36.000Z,62.26
2019-06-15T09:59:36.000Z,62.28
2019-06-15T10:00:36.000Z,62.28
2019-06-15T10:01:37.000Z,62.17
2019-06-15T10:02:37.000Z,62.37
2019-06-15T10:03:37.000Z,62.10
2019-06-15T10:04:37.000Z,62.12
2019-06-15T10:05:37.000Z,62.05
2019-06-15T10:06:37.000Z,62.21
2019-06-15T10:07:36.000Z,62.20
2019-06-15T10:08:36.000Z,62.04
2019-06-15T10:09:36.000Z,61.59
2019-06-15T10:10:36.000Z,61.92
2019-06-15T10:11:36.000Z,62.09
2019-06-15T10:12:37.000Z,62.05
2019-06-15T10:13:36.000Z,62.16
2019-06-15T10:14:36.000Z,62.19
2019-06-15T10:15:36.000Z,62.14
2019-06-15T10:16:36.000Z,62.14
2019-06-15T10:17:36.000Z,62.14
2019-06-15T10:18:36.000Z,62.24
2019-06-15T10:19:36.000Z,62.13
2019-06-15T10:20:36.000Z,62.13
2019-06-15T10:21:36.000Z,62.08
2019-06-15T10:22:36.000Z,62.17
2019-06-15T10:23:37.000Z,62.22
2019-06-15T10:24:36.000Z,62.18
2019-06-15T10:25:36.000Z,62.11
2019-06-15T10:26:36.000Z,62.05
2019-06-15T10:27:36.000Z,62.14
2019-06-15T10:28:36.000Z,61.98
2019-06-15T10:29:36.000Z,62.09
2019-06-15T10:30:36.000Z,62.12
2019-06-15T10:31:36.000Z,62.13
2019-06-15T10:32:37.000Z,62.10
2019-06-15T10:33:36.000Z,62.10
2019-06-15T10:34:36.000Z,62.06
2019-06-15T10:35:36.000Z,62.04
2019-06-15T10:36:36.000Z,62.07
2019-06-15T10:37:36.000Z,62.08
2019-06-15T10:38:36.000Z,61.97
2019-06-15T10:39:36.000Z,61.98
2019-06-15T10:40:36.000Z,62.03
2019-06-15T10:41:36.000Z,61.94
2019-06-15T10:42:36.000Z,62.06
2019-06-15T10:43:36.000Z,61.93
2019-06-15T10:44:36.000Z,61.88
2019-06-15T10:45:36.000Z,61.89
2019-06-15T10:46:36.000Z,61.79
2019-06-15T10:47:36.000Z,61.82
2019-06-15T10:48:36.000Z,61.93
2019-06-15T10:49:36.000Z,61.91
2019-06-15T10:50:36.000Z,61.86
2019-06-15T10:51:36.000Z,61.90
2019-06-15T10:52:36.000Z,61.75
2019-06-15T10:53:36.000Z,61.82
2019-06-15T10:54:36.000Z,61.78
2019-06-15T10:55:36.000Z,61.80
2019-06-15T10:56:36.000Z,61.81
2019-06-15T10:57:36.000Z,61.80
2019-06-15T10:58:36.000Z,61.89
2019-06-15T10:59:36.000Z,61.79
2019-06-15T11:00:36.000Z,61.80
2019-06-15T11:01:36.000Z,61.78
2019-06-15T11:02:36.000Z,61.78
2019-06-15T11:03:36.000Z,61.82
2019-06-15T11:04:36.000Z,61.80
2019-06-15T11:05:36.000Z,61.77
2019-06-15T11:06:36.000Z,61.81
2019-06-15T11:07:36.000Z,61.84
2019-06-15T11:08:36.000Z,61.97
2019-06-15T11:09:36.000Z,61.96
2019-06-15T11:10:36.000Z,61.64
2019-06-15T11:11:36.000Z,61.75
2019-06-15T11:12:36.000Z,61.75
2019-06-15T11:13:36.000Z,61.88
2019-06-15T11:14:36.000Z,61.87
2019-06-15T11:15:36.000Z,61.75
2019-06-15T11:16:36.000Z,61.80
2019-06-15T11:17:36.000Z,61.80
2019-06-15T11:18:36.000Z,61.76
2019-06-15T11:19:36.000Z,61.77
2019-06-15T11:20:36.000Z,61.76
2019-06-15T11:21:36.000Z,61.74
2019-06-15T11:22:36.000Z,61.82
2019-06-15T11:23:36.000Z,61.77
2019-06-15T11:24:36.000Z,61.74
2019-06-15T11:25:36.000Z,61.73
2019-06-15T11:26:36.000Z,61.72
2019-06-15T11:27:36.000Z,61.74
2019-06-15T11:28:37.000Z,61.70
2019-06-15T11:29:36.000Z,61.66
2019-06-15T11:30:36.000Z,61.70
2019-06-15T11:31:36.000Z,61.68
2019-06-15T11:32:36.000Z,61.67
2019-06-15T11:33:36.000Z,61.74
2019-06-15T11:34:36.000Z,61.67
2019-06-15T11:35:36.000Z,61.64
2019-06-15T11:36:36.000Z,61.63
2019-06-15T11:37:36.000Z,61.62
2019-06-15T11:38:36.000Z,61.59
2019-06-15T11:39:35.000Z,61.59
2019-06-15T11:40:35.000Z,61.60
2019-06-15T11:41:35.000Z,61.60
2019-06-15T11:42:35.000Z,61.60
2019-06-15T11:43:35.000Z,61.72
2019-06-15T11:44:36.000Z,61.69
2019-06-15T11:45:36.000Z,61.65
2019-06-15T11:46:36.000Z,61.61
2019-06-15T11:47:36.000Z,61.62
2019-06-15T11:48:36.000Z,61.63
2019-06-15T11:49:36.000Z,61.73
2019-06-15T11:50:36.000Z,61.56
2019-06-15T11:51:36.000Z,61.63
2019-06-15T11:52:36.000Z,61.63
2019-06-15T11:53:36.000Z,61.63
2019-06-15T11:54:36.000Z,61.61
2019-06-15T11:55:35.000Z,61.60
2019-06-15T11:56:35.000Z,61.71
2019-06-15T11:57:35.000Z,61.68
2019-06-15T11:58:35.000Z,61.61
2019-06-15T11:59:35.000Z,61.60
2019-06-15T12:00:35.000Z,61.60
2019-06-15T12:01:36.000Z,61.60
2019-06-15T12:02:36.000Z,61.56
2019-06-15T12:03:35.000Z,61.55
2019-06-15T12:04:36.000Z,61.59
2019-06-15T12:05:35.000Z,61.59
2019-06-15T12:06:35.000Z,61.55
2019-06-15T12:07:36.000Z,61.53
2019-06-15T12:08:35.000Z,61.51
2019-06-15T12:09:36.000Z,61.51
2019-06-15T12:10:36.000Z,61.50
2019-06-15T12:11:37.000Z,61.49
2019-06-15T12:12:36.000Z,61.49
2019-06-15T12:13:37.000Z,61.53
2019-06-15T12:14:36.000Z,61.51
2019-06-15T12:15:37.000Z,61.47
2019-06-15T12:16:37.000Z,61.43
2019-06-15T12:17:36.000Z,61.49
2019-06-15T12:18:36.000Z,61.50
2019-06-15T12:19:36.000Z,61.42
2019-06-15T12:20:36.000Z,61.43
2019-06-15T12:21:36.000Z,61.43
2019-06-15T12:22:36.000Z,61.44
2019-06-15T12:23:36.000Z,61.40
2019-06-15T12:24:36.000Z,61.41
2019-06-15T12:25:36.000Z,61.40
2019-06-15T12:26:36.000Z,61.39
2019-06-15T12:27:36.000Z,61.39
2019-06-15T12:28:37.000Z,61.40
2019-06-15T12:29:36.000Z,61.37
2019-06-15T12:30:37.000Z,61.35
2019-06-15T12:31:36.000Z,61.36
2019-06-15T12:32:36.000Z,61.37
2019-06-15T12:33:37.000Z,61.38
2019-06-15T12:34:36.000Z,61.33
2019-06-15T12:35:36.000Z,61.34
2019-06-15T12:36:36.000Z,61.34
2019-06-15T12:37:36.000Z,61.30
2019-06-15T12:38:36.000Z,61.33
2019-06-15T12:39:36.000Z,61.35
2019-06-15T12:40:36.000Z,61.40
2019-06-15T12:41:37.000Z,61.39
2019-06-15T12:42:36.000Z,61.41
2019-06-15T12:43:36.000Z,61.38
2019-06-15T12:44:37.000Z,61.38
2019-06-15T12:45:37.000Z,61.43
2019-06-15T12:46:38.000Z,61.43
2019-06-15T12:47:36.000Z,61.47
2019-06-15T12:48:37.000Z,61.51
2019-06-15T12:49:37.000Z,61.49
2019-06-15T12:50:36.000Z,61.51
2019-06-15T12:51:36.000Z,61.50
2019-06-15T12:52:36.000Z,61.51
2019-06-15T12:53:36.000Z,61.50